Time;durP1;ratioP1;P1;durP2;ratioP2;P2;SDS_P1;SDS_P2;PMS_P1;PMS_P2;Temp;Humidity;BMP_temperature;BMP_pressure;BME280_temperature;BME280_humidity;BME280_pressure;Samples;Min_cycle;Max_cycle;Signal;HPM_P1;HPM_P2
2022/11/14 00:02:01;;;;;;;21.73;10.18;;;7.10;99.90;;;;;;4231844;28;20176;-87
2022/11/14 00:04:02;;;;;;;23.55;9.90;;;7.10;99.90;;;;;;4217613;28;20101;-87
2022/11/14 00:06:06;;;;;;;24.52;10.60;;;7.00;99.90;;;;;;4233905;28;20043;-87
2022/11/14 00:08:24;;;;;;;25.73;10.48;;;7.10;99.90;;;;;;4233596;28;20054;-87
2022/11/14 00:10:25;;;;;;;22.83;10.32;;;7.20;99.90;;;;;;4234384;28;20043;-87
2022/11/14 00:12:26;;;;;;;26.63;11.02;;;7.20;99.90;;;;;;4233460;28;20130;-88
2022/11/14 00:14:27;;;;;;;19.95;10.52;;;7.20;99.90;;;;;;4233815;28;20048;-88
2022/11/14 00:16:28;;;;;;;29.63;13.20;;;7.10;99.90;;;;;;4232457;28;20432;-88
2022/11/14 00:18:28;;;;;;;25.48;11.40;;;7.20;99.90;;;;;;4233221;28;20047;-88
2022/11/14 00:20:31;;;;;;;23.00;10.60;;;7.60;99.90;;;;;;4216021;28;20050;-87
2022/11/14 00:22:33;;;;;;;24.05;11.30;;;7.20;99.90;;;;;;4221542;28;20052;-87
2022/11/14 00:24:34;;;;;;;23.25;10.18;;;7.10;99.90;;;;;;4249394;27;20080;-87
2022/11/14 00:26:34;;;;;;;27.85;13.13;;;7.20;99.90;;;;;;4214679;28;20059;-88
2022/11/14 00:28:36;;;;;;;25.55;11.88;;;7.10;99.90;;;;;;4231274;28;20472;-87
2022/11/14 00:30:38;;;;;;;25.15;11.77;;;7.10;99.90;;;;;;4248957;28;20062;-87
2022/11/14 00:32:39;;;;;;;42.55;15.68;;;7.30;99.90;;;;;;4249382;28;20491;-88
2022/11/14 00:34:40;;;;;;;26.38;11.45;;;7.30;99.90;;;;;;4246290;28;20095;-88
2022/11/14 00:36:42;;;;;;;25.52;10.80;;;7.30;99.90;;;;;;4249265;28;20043;-88
2022/11/14 00:38:43;;;;;;;28.35;11.27;;;7.20;99.90;;;;;;4249293;28;20111;-87
2022/11/14 00:40:44;;;;;;;25.27;12.10;;;7.30;99.90;;;;;;4248522;28;20039;-88
2022/11/14 00:42:46;;;;;;;29.60;12.48;;;7.30;99.90;;;;;;4214155;28;20086;-88
2022/11/14 00:44:48;;;;;;;26.10;11.35;;;7.30;99.90;;;;;;4248849;28;20038;-87
2022/11/14 00:46:48;;;;;;;32.70;13.88;;;7.30;99.90;;;;;;4249218;28;20129;-87
2022/11/14 00:48:49;;;;;;;31.35;12.25;;;;;;;;;;4231406;28;20051;-87
2022/11/14 00:50:50;;;;;;;30.60;12.65;;;7.20;99.90;;;;;;4231390;28;20183;-87
2022/11/14 00:52:52;;;;;;;29.42;12.80;;;7.30;99.90;;;;;;4249822;28;20047;-88
2022/11/14 00:54:53;;;;;;;26.08;12.05;;;7.30;99.90;;;;;;4231430;28;20055;-88
2022/11/14 00:56:53;;;;;;;31.02;13.93;;;7.20;99.90;;;;;;4231525;28;20047;-87
2022/11/14 00:58:54;;;;;;;29.58;13.52;;;7.30;99.90;;;;;;4233654;28;20067;-88
2022/11/14 01:00:56;;;;;;;34.90;13.25;;;7.30;99.90;;;;;;4234750;28;20035;-88
2022/11/14 01:02:57;;;;;;;28.48;12.77;;;7.30;99.90;;;;;;4252448;27;20303;-87
2022/11/14 01:04:57;;;;;;;27.80;13.15;;;7.50;99.90;;;;;;4252825;27;20043;-87
2022/11/14 01:06:59;;;;;;;29.52;15.05;;;7.70;99.90;;;;;;4234949;28;20096;-86
2022/11/14 01:09:00;;;;;;;35.20;15.05;;;7.20;99.90;;;;;;4252628;27;20039;-87
2022/11/14 01:11:18;;;;;;;32.60;14.75;;;7.30;99.90;;;;;;4252727;27;20050;-87
2022/11/14 01:13:19;;;;;;;32.70;14.60;;;7.30;99.90;;;;;;4252244;27;20055;-87
2022/11/14 01:15:20;;;;;;;36.20;15.07;;;7.20;99.90;;;;;;4233972;28;20082;-86
2022/11/14 01:17:22;;;;;;;37.92;14.80;;;7.20;99.90;;;;;;4252677;27;20039;-87
2022/11/14 01:19:22;;;;;;;33.53;15.90;;;7.50;99.90;;;;;;4251875;27;20253;-86
2022/11/14 01:21:24;;;;;;;36.85;16.90;;;7.30;99.90;;;;;;4234355;28;20083;-86
2022/11/14 01:23:26;;;;;;;44.58;17.52;;;7.20;99.90;;;;;;4233805;28;20057;-86
2022/11/14 01:25:27;;;;;;;36.58;17.05;;;7.20;99.90;;;;;;4251856;27;20047;-86
2022/11/14 01:27:30;;;;;;;36.45;16.60;;;7.30;99.90;;;;;;4216233;28;20415;-86
2022/11/14 01:29:31;;;;;;;40.33;17.13;;;7.10;99.90;;;;;;4252310;27;20099;-87
2022/11/14 01:31:32;;;;;;;35.85;16.83;;;7.20;99.90;;;;;;4252409;27;20122;-86
2022/11/14 01:33:32;;;;;;;38.05;17.33;;;7.00;99.90;;;;;;4252296;27;20127;-87
2022/11/14 01:35:36;;;;;;;40.60;17.77;;;7.00;99.90;;;;;;4252108;27;20043;-87
2022/11/14 01:37:37;;;;;;;40.55;18.38;;;6.00;99.90;;;;;;4251713;27;20043;-86
2022/11/14 01:39:39;;;;;;;40.10;18.45;;;7.00;99.90;;;;;;4251684;27;20082;-87
2022/11/14 01:41:40;;;;;;;37.92;17.40;;;7.00;99.90;;;;;;4251933;27;20043;-87
2022/11/14 01:43:42;;;;;;;39.88;17.67;;;7.10;99.90;;;;;;4251962;27;20047;-86
2022/11/14 01:46:03;;;;;;;41.15;17.70;;;7.10;99.90;;;;;;4234195;28;20487;-87
2022/11/14 01:48:12;;;;;;;39.88;18.25;;;7.10;99.90;;;;;;4237123;27;20491;-87
2022/11/14 01:50:13;;;;;;;40.53;17.98;;;7.00;99.90;;;;;;4230555;28;20051;-87
2022/11/14 01:52:21;;;;;;;40.80;18.48;;;7.10;99.90;;;;;;4234186;28;20043;-86
2022/11/14 01:54:29;;;;;;;43.55;18.65;;;6.80;99.90;;;;;;4251857;27;20040;-86
2022/11/14 01:56:54;;;;;;;41.20;18.70;;;6.90;99.90;;;;;;4234148;28;20062;-86
2022/11/14 01:59:18;;;;;;;40.00;17.30;;;7.00;99.90;;;;;;4252083;27;20054;-88
2022/11/14 02:01:20;;;;;;;44.10;19.20;;;5.40;99.90;;;;;;4234115;28;20052;-87
2022/11/14 02:03:21;;;;;;;40.92;18.95;;;7.10;99.90;;;;;;4234492;28;20511;-87
2022/11/14 02:05:22;;;;;;;41.42;17.05;;;7.00;99.90;;;;;;4234216;28;20047;-88
2022/11/14 02:07:27;;;;;;;39.95;18.83;;;7.20;99.90;;;;;;4252492;27;20408;-87
2022/11/14 02:09:33;;;;;;;43.67;18.60;;;7.10;99.90;;;;;;4250785;27;20047;-87
2022/11/14 02:11:40;;;;;;;45.83;19.98;;;6.90;99.90;;;;;;4252204;27;20051;-87
2022/11/14 02:13:41;;;;;;;44.50;17.98;;;7.00;99.90;;;;;;4251681;27;20082;-87
2022/11/14 02:15:43;;;;;;;38.67;17.42;;;7.00;99.90;;;;;;4216477;28;20052;-86
2022/11/14 02:17:45;;;;;;;40.78;19.05;;;7.30;99.90;;;;;;4251958;27;20114;-88
2022/11/14 02:19:51;;;;;;;41.42;18.95;;;6.90;99.90;;;;;;4252277;27;20131;-86
2022/11/14 02:21:52;;;;;;;43.67;18.85;;;7.10;99.90;;;;;;4251920;27;20114;-86
2022/11/14 02:23:53;;;;;;;43.92;19.08;;;7.10;99.90;;;;;;4216678;28;20474;-87
2022/11/14 02:25:55;;;;;;;42.70;17.95;;;6.90;99.90;;;;;;4252094;27;20088;-87
2022/11/14 02:27:59;;;;;;;42.22;18.17;;;7.00;99.90;;;;;;4216449;28;20059;-87
2022/11/14 02:30:10;;;;;;;37.17;16.27;;;7.10;99.90;;;;;;4251630;27;20491;-87
2022/11/14 02:32:11;;;;;;;41.65;18.55;;;7.00;99.90;;;;;;4217259;28;20052;-87
2022/11/14 02:34:15;;;;;;;42.85;18.70;;;6.60;99.90;;;;;;4232163;28;20067;-87
2022/11/14 02:36:17;;;;;;;42.22;19.52;;;6.50;99.90;;;;;;4252473;27;20039;-88
2022/11/14 02:38:19;;;;;;;44.30;17.98;;;7.00;99.90;;;;;;4251495;27;20384;-86
2022/11/14 02:40:19;;;;;;;43.70;18.55;;;7.00;99.90;;;;;;4253110;27;20398;-86
2022/11/14 02:42:20;;;;;;;38.58;18.38;;;7.00;99.90;;;;;;4233442;28;20178;-87
2022/11/14 02:44:21;;;;;;;44.67;19.67;;;7.30;99.90;;;;;;4233866;28;20086;-87
2022/11/14 02:46:21;;;;;;;39.30;17.80;;;7.00;99.90;;;;;;4233547;28;20480;-86
2022/11/14 02:48:23;;;;;;;40.05;17.42;;;7.00;99.90;;;;;;4250840;27;20482;-86
2022/11/14 02:50:24;;;;;;;43.53;18.08;;;7.50;99.90;;;;;;4217199;28;20091;-86
2022/11/14 02:52:25;;;;;;;42.08;18.13;;;7.00;99.90;;;;;;4216108;28;20408;-88
2022/11/14 02:54:25;;;;;;;43.65;19.35;;;7.00;99.90;;;;;;4250261;27;20061;-87
2022/11/14 02:56:27;;;;;;;46.47;20.15;;;7.00;99.90;;;;;;4251522;27;20453;-87
2022/11/14 02:58:29;;;;;;;48.55;19.52;;;7.10;99.90;;;;;;4251540;27;20096;-88
2022/11/14 03:00:30;;;;;;;40.67;18.40;;;7.10;99.90;;;;;;4250256;27;20056;-86
2022/11/14 03:02:31;;;;;;;55.20;20.80;;;7.50;99.90;;;;;;4251334;27;20071;-87
2022/11/14 03:04:34;;;;;;;44.13;19.27;;;7.10;99.90;;;;;;4251427;27;20115;-86
2022/11/14 03:06:35;;;;;;;46.17;18.67;;;7.10;99.90;;;;;;4251101;27;20131;-86
2022/11/14 03:08:35;;;;;;;39.67;18.65;;;7.20;99.90;;;;;;4216293;28;20126;-86
2022/11/14 03:10:36;;;;;;;46.38;17.70;;;7.00;99.90;;;;;;4250760;27;20039;-87
2022/11/14 03:12:37;;;;;;;44.85;20.13;;;7.20;99.90;;;;;;4215580;28;20051;-87
2022/11/14 03:14:37;;;;;;;42.97;18.63;;;5.80;99.90;;;;;;4232853;28;20051;-87
2022/11/14 03:16:38;;;;;;;43.45;19.83;;;7.00;99.90;;;;;;4232265;28;20052;-87
2022/11/14 03:18:39;;;;;;;59.97;23.20;;;7.10;99.90;;;;;;4231915;28;20050;-87
2022/11/14 03:20:41;;;;;;;44.95;17.35;;;7.20;99.90;;;;;;4233406;28;20051;-86
2022/11/14 03:22:42;;;;;;;41.67;18.23;;;7.20;99.90;;;;;;4224179;28;20131;-88
2022/11/14 03:24:42;;;;;;;48.38;19.80;;;7.10;99.90;;;;;;4232318;28;20374;-86
2022/11/14 03:26:44;;;;;;;40.33;18.48;;;7.10;99.90;;;;;;4250761;27;20122;-87
2022/11/14 03:28:45;;;;;;;44.25;18.92;;;7.20;99.90;;;;;;4215249;28;20055;-86
2022/11/14 03:30:47;;;;;;;41.90;17.67;;;7.60;99.90;;;;;;4250338;27;20146;-87
2022/11/14 03:32:49;;;;;;;42.47;17.63;;;7.20;99.90;;;;;;4250790;27;20081;-88
2022/11/14 03:34:49;;;;;;;42.15;17.33;;;7.20;99.90;;;;;;4250682;27;20035;-87
2022/11/14 03:36:50;;;;;;;44.22;17.15;;;7.10;99.90;;;;;;4232506;28;20096;-87
2022/11/14 03:38:52;;;;;;;41.13;17.73;;;7.20;99.90;;;;;;4250361;27;20527;-87
2022/11/14 03:40:53;;;;;;;40.53;17.60;;;7.10;99.90;;;;;;4250889;27;20514;-86
2022/11/14 03:42:56;;;;;;;41.38;18.77;;;7.30;99.90;;;;;;4250480;27;20035;-86
2022/11/14 03:44:57;;;;;;;40.05;18.30;;;7.20;99.90;;;;;;4250696;27;20043;-88
2022/11/14 03:46:57;;;;;;;45.13;19.38;;;7.90;99.90;;;;;;4214931;28;20051;-88
2022/11/14 03:48:58;;;;;;;38.33;17.42;;;7.20;99.90;;;;;;4232019;28;20554;-87
2022/11/14 03:50:59;;;;;;;39.05;17.02;;;5.90;99.90;;;;;;4232504;28;20071;-87
2022/11/14 03:53:00;;;;;;;41.70;17.58;;;7.10;99.90;;;;;;4249154;27;20043;-88
2022/11/14 03:55:01;;;;;;;37.88;17.92;;;7.10;99.90;;;;;;4231917;28;20584;-88
2022/11/14 03:57:02;;;;;;;39.53;17.65;;;7.10;99.90;;;;;;4231713;28;20047;-87
2022/11/14 03:59:04;;;;;;;42.72;18.50;;;7.10;99.90;;;;;;4232045;28;20559;-87
2022/11/14 04:01:06;;;;;;;42.22;18.33;;;7.00;99.90;;;;;;4230149;28;20086;-88
2022/11/14 04:03:07;;;;;;;38.70;17.02;;;7.00;99.90;;;;;;4232163;28;20047;-87
2022/11/14 04:05:08;;;;;;;39.20;18.42;;;7.70;99.90;;;;;;4231232;28;20047;-88
2022/11/14 04:07:09;;;;;;;41.05;18.10;;;7.00;99.90;;;;;;4250443;27;20058;-87
2022/11/14 04:09:11;;;;;;;44.63;18.88;;;7.20;99.90;;;;;;4250467;27;20043;-87
2022/11/14 04:11:12;;;;;;;42.22;19.67;;;7.10;99.90;;;;;;4249662;27;20027;-88
2022/11/14 04:13:14;;;;;;;42.53;17.70;;;7.10;99.90;;;;;;4215007;28;20105;-88
2022/11/14 04:15:16;;;;;;;39.55;17.83;;;7.10;99.90;;;;;;4250228;27;20471;-87
2022/11/14 04:17:18;;;;;;;40.10;18.40;;;7.10;99.90;;;;;;4249248;27;20065;-87
2022/11/14 04:19:19;;;;;;;35.08;17.15;;;7.10;99.90;;;;;;4225762;28;20094;-87
2022/11/14 04:21:20;;;;;;;39.05;17.85;;;7.40;99.90;;;;;;4215215;28;20097;-87
2022/11/14 04:23:21;;;;;;;42.72;18.50;;;7.30;99.90;;;;;;4212390;28;20516;-87
2022/11/14 04:25:22;;;;;;;42.10;18.38;;;7.00;99.90;;;;;;4230984;28;20055;-87
2022/11/14 04:27:23;;;;;;;45.60;20.02;;;7.20;99.90;;;;;;4232055;28;20059;-87
2022/11/14 04:29:25;;;;;;;37.00;17.23;;;7.00;99.90;;;;;;4232426;28;20055;-87
2022/11/14 04:31:27;;;;;;;38.92;17.35;;;6.90;99.90;;;;;;4216491;28;20052;-87
2022/11/14 04:33:27;;;;;;;40.97;18.02;;;7.00;99.90;;;;;;4215007;28;20052;-87
2022/11/14 04:35:28;;;;;;;40.30;18.50;;;7.00;99.90;;;;;;4230327;28;20084;-87
2022/11/14 04:37:30;;;;;;;40.58;17.45;;;7.00;99.90;;;;;;4215986;28;20116;-87
2022/11/14 04:39:31;;;;;;;41.38;18.98;;;6.90;99.90;;;;;;4250665;28;20495;-87
2022/11/14 04:41:31;;;;;;;42.05;18.55;;;7.10;99.90;;;;;;4233237;28;20047;-88
2022/11/14 04:43:32;;;;;;;40.78;18.58;;;7.10;99.90;;;;;;4232195;28;20063;-87
2022/11/14 04:45:33;;;;;;;41.72;19.08;;;7.00;99.90;;;;;;4251784;28;20043;-87
2022/11/14 04:47:34;;;;;;;46.45;19.73;;;6.90;99.90;;;;;;4250682;28;20042;-87
2022/11/14 04:49:35;;;;;;;43.38;19.83;;;7.00;99.90;;;;;;4250541;28;20051;-87
2022/11/14 04:51:37;;;;;;;43.72;19.38;;;6.90;99.90;;;;;;4233219;28;20047;-87
2022/11/14 04:53:39;;;;;;;43.78;19.83;;;7.90;99.90;;;;;;4250029;28;20035;-87
2022/11/14 04:55:39;;;;;;;41.22;18.83;;;7.00;99.90;;;;;;4250707;28;20060;-87
2022/11/14 04:57:41;;;;;;;45.88;19.42;;;6.90;99.90;;;;;;4250751;28;20124;-87
2022/11/14 04:59:43;;;;;;;45.83;20.10;;;7.00;99.90;;;;;;4220852;28;20068;-87
2022/11/14 05:01:44;;;;;;;46.13;20.40;;;6.90;99.90;;;;;;4236890;28;20124;-88
2022/11/14 05:03:44;;;;;;;46.42;19.75;;;6.90;99.90;;;;;;4250802;28;20044;-87
2022/11/14 05:05:46;;;;;;;44.38;18.98;;;7.00;99.90;;;;;;4251114;28;20071;-88
2022/11/14 05:07:47;;;;;;;44.05;19.88;;;6.90;99.90;;;;;;4252881;28;20047;-87
2022/11/14 05:09:48;;;;;;;39.05;18.42;;;6.90;99.90;;;;;;4251664;28;20499;-87
2022/11/14 05:11:48;;;;;;;40.40;18.00;;;7.00;99.90;;;;;;4233351;28;20059;-87
2022/11/14 05:13:50;;;;;;;40.42;18.10;;;6.90;99.90;;;;;;4241249;27;20062;-86
2022/11/14 05:15:52;;;;;;;43.05;18.60;;;6.90;99.90;;;;;;4235817;28;20111;-87
2022/11/14 05:17:52;;;;;;;40.30;17.50;;;7.00;99.90;;;;;;4251199;28;20043;-87
2022/11/14 05:19:54;;;;;;;40.50;18.65;;;6.90;99.90;;;;;;4222630;28;20047;-87
2022/11/14 05:21:55;;;;;;;38.75;19.23;;;7.00;99.90;;;;;;4218281;28;20056;-87
2022/11/14 05:23:58;;;;;;;40.25;17.83;;;7.20;99.90;;;;;;4249878;28;20178;-87
2022/11/14 05:26:08;;;;;;;39.10;17.40;;;6.80;99.90;;;;;;4231275;28;20059;-87
2022/11/14 05:28:09;;;;;;;35.13;16.52;;;6.90;99.90;;;;;;4233993;28;20098;-86
2022/11/14 05:30:10;;;;;;;44.53;19.10;;;6.80;99.90;;;;;;4234338;28;20048;-87
2022/11/14 05:32:12;;;;;;;39.58;16.60;;;6.90;99.90;;;;;;4250978;28;20062;-87
2022/11/14 05:34:13;;;;;;;37.70;18.05;;;6.90;99.90;;;;;;4250914;28;20039;-87
2022/11/14 05:36:15;;;;;;;35.90;15.80;;;7.30;99.90;;;;;;4232214;28;20056;-87
2022/11/14 05:38:16;;;;;;;37.50;17.15;;;6.90;99.90;;;;;;4232204;28;20550;-86
2022/11/14 05:40:18;;;;;;;41.90;18.15;;;6.80;99.90;;;;;;4250321;28;20052;-87
2022/11/14 05:42:19;;;;;;;39.40;17.20;;;6.80;99.90;;;;;;4232982;28;20392;-87
2022/11/14 05:44:20;;;;;;;38.30;17.75;;;6.70;99.90;;;;;;4250279;27;20047;-86
2022/11/14 05:46:22;;;;;;;41.45;17.70;;;6.90;99.90;;;;;;4234763;28;20103;-87
2022/11/14 05:48:24;;;;;;;39.08;17.48;;;5.20;99.90;;;;;;4217270;28;20104;-87
2022/11/14 05:50:25;;;;;;;38.03;17.15;;;7.00;99.90;;;;;;4232653;28;20091;-87
2022/11/14 05:52:26;;;;;;;41.45;17.35;;;6.80;99.90;;;;;;4233638;28;20047;-85
2022/11/14 05:54:27;;;;;;;38.67;16.80;;;6.50;99.90;;;;;;4217083;28;20574;-87
2022/11/14 05:56:27;;;;;;;35.67;16.20;;;6.70;99.90;;;;;;4233171;28;20075;-87
2022/11/14 05:58:30;;;;;;;38.08;17.20;;;6.60;99.90;;;;;;4254701;27;20050;-87
2022/11/14 06:00:31;;;;;;;40.30;18.02;;;7.10;99.90;;;;;;4235006;28;20563;-86
2022/11/14 06:02:32;;;;;;;42.70;18.92;;;6.60;99.90;;;;;;4213947;28;20052;-86
2022/11/14 06:04:32;;;;;;;37.95;17.65;;;6.50;99.90;;;;;;4249134;27;20035;-86
2022/11/14 06:06:34;;;;;;;38.47;16.80;;;6.70;99.90;;;;;;4217321;28;20493;-87
2022/11/14 06:08:36;;;;;;;40.20;17.20;;;6.70;99.90;;;;;;4248243;27;20065;-87
2022/11/14 06:10:38;;;;;;;40.70;16.55;;;6.60;99.90;;;;;;4243227;27;20075;-86
2022/11/14 06:12:39;;;;;;;40.30;17.23;;;6.70;99.90;;;;;;4251554;27;20036;-87
2022/11/14 06:14:40;;;;;;;44.13;17.70;;;6.70;99.90;;;;;;4236272;27;20102;-86
2022/11/14 06:16:40;;;;;;;41.13;16.85;;;6.60;99.90;;;;;;4233679;28;20050;-87
2022/11/14 06:18:41;;;;;;;41.45;17.55;;;6.50;99.90;;;;;;4251155;27;20126;-87
2022/11/14 06:20:43;;;;;;;44.67;19.00;;;7.00;99.90;;;;;;4216904;28;20059;-87
2022/11/14 06:22:45;;;;;;;41.22;18.08;;;6.60;99.90;;;;;;4226809;28;20465;-87
2022/11/14 06:24:46;;;;;;;42.55;18.02;;;6.50;99.90;;;;;;4216382;28;20082;-87
2022/11/14 06:26:48;;;;;;;39.97;18.52;;;6.50;99.90;;;;;;4252108;27;20050;-86
2022/11/14 06:28:50;;;;;;;44.00;18.33;;;7.80;99.90;;;;;;4252126;27;20050;-87
2022/11/14 06:30:50;;;;;;;44.67;19.52;;;6.50;99.90;;;;;;4252303;27;20043;-87
2022/11/14 06:32:58;;;;;;;44.13;16.88;;;6.60;99.90;;;;;;4251498;27;20050;-86
2022/11/14 06:34:59;;;;;;;39.13;18.05;;;6.50;99.90;;;;;;4216532;28;20324;-87
2022/11/14 06:37:00;;;;;;;39.00;17.02;;;6.50;99.90;;;;;;4251708;27;20127;-86
2022/11/14 06:39:02;;;;;;;42.97;17.35;;;6.40;99.90;;;;;;4216353;28;20048;-86
2022/11/14 06:41:09;;;;;;;43.03;18.70;;;6.60;99.90;;;;;;4251381;27;20401;-87
2022/11/14 06:43:10;;;;;;;43.35;18.65;;;6.50;99.90;;;;;;4253998;27;20053;-87
2022/11/14 06:45:11;;;;;;;49.13;18.00;;;6.50;99.90;;;;;;4255743;27;20043;-88
2022/11/14 06:47:12;;;;;;;46.00;20.25;;;6.30;99.90;;;;;;4249657;27;20071;-88
2022/11/14 06:49:14;;;;;;;43.78;18.23;;;6.30;99.90;;;;;;4208646;28;20044;-90
2022/11/14 06:51:18;;;;;;;47.30;18.92;;;6.40;99.90;;;;;;4236407;28;20047;-89
2022/11/14 06:53:20;;;;;;;45.15;18.40;;;6.50;99.90;;;;;;4217978;28;20052;-87
2022/11/14 06:55:21;;;;;;;48.15;18.10;;;6.30;99.90;;;;;;4233404;28;20043;-88
2022/11/14 06:57:22;;;;;;;43.25;19.10;;;6.40;99.90;;;;;;4233023;28;20047;-87
2022/11/14 06:59:23;;;;;;;50.38;19.75;;;6.30;99.90;;;;;;4215442;28;20127;-85
2022/11/14 07:01:27;;;;;;;42.47;17.45;;;6.40;99.90;;;;;;4239738;27;20039;-86
2022/11/14 07:03:29;;;;;;;47.40;17.92;;;6.30;99.90;;;;;;4250924;27;20122;-87
2022/11/14 07:05:31;;;;;;;48.72;18.50;;;6.60;99.90;;;;;;4251451;27;20082;-88
2022/11/14 07:07:33;;;;;;;52.03;18.48;;;6.20;99.90;;;;;;4233310;28;20075;-88
2022/11/14 07:09:34;;;;;;;48.22;17.77;;;6.30;99.90;;;;;;4251567;27;20050;-86
2022/11/14 07:11:35;;;;;;;45.90;19.00;;;6.40;99.90;;;;;;4250320;27;20539;-87
2022/11/14 07:13:36;;;;;;;43.85;17.70;;;6.30;99.90;;;;;;4250576;27;20051;-87
2022/11/14 07:15:37;;;;;;;55.90;18.25;;;6.20;99.90;;;;;;4232590;28;20051;-87
2022/11/14 07:17:37;;;;;;;42.55;17.45;;;6.20;99.90;;;;;;4215665;28;20090;-89
2022/11/14 07:19:38;;;;;;;48.17;19.08;;;6.20;99.90;;;;;;4206883;28;20044;-87
2022/11/14 07:21:39;;;;;;;40.58;17.05;;;6.20;99.90;;;;;;4232475;28;20535;-84
2022/11/14 07:23:41;;;;;;;44.03;18.20;;;6.20;99.90;;;;;;4250134;27;20475;-87
2022/11/14 07:25:43;;;;;;;43.90;18.05;;;7.40;99.90;;;;;;4231693;28;20407;-86
2022/11/14 07:27:44;;;;;;;44.97;19.10;;;6.30;99.90;;;;;;4248854;27;20072;-85
2022/11/14 07:29:51;;;;;;;42.75;18.42;;;5.40;99.90;;;;;;4249648;27;20643;-85
2022/11/14 07:31:52;;;;;;;42.83;17.60;;;6.50;99.90;;;;;;4213812;28;20518;-85
2022/11/14 07:33:53;;;;;;;45.38;19.02;;;6.20;99.90;;;;;;4249048;27;20414;-85
2022/11/14 07:35:55;;;;;;;48.53;18.92;;;6.30;99.90;;;;;;4214919;28;20079;-85
2022/11/14 07:38:03;;;;;;;46.10;16.95;;;6.40;99.90;;;;;;4249702;27;20123;-85
2022/11/14 07:40:04;;;;;;;44.45;17.83;;;7.10;99.90;;;;;;4248646;27;20513;-84
2022/11/14 07:42:05;;;;;;;45.05;18.17;;;6.10;99.90;;;;;;4231367;28;20548;-86
2022/11/14 07:44:07;;;;;;;45.95;17.23;;;6.20;99.90;;;;;;4230897;28;20100;-85
2022/11/14 07:46:11;;;;;;;54.72;20.00;;;5.90;99.90;;;;;;4231516;28;20054;-87
2022/11/14 07:48:12;;;;;;;45.10;19.50;;;6.20;99.90;;;;;;4214242;28;20087;-86
2022/11/14 07:50:13;;;;;;;49.65;18.92;;;6.40;99.90;;;;;;4210607;28;20048;-86
2022/11/14 07:52:13;;;;;;;45.22;17.13;;;6.20;99.90;;;;;;4249677;27;20039;-86
2022/11/14 07:54:14;;;;;;;40.42;18.15;;;7.20;99.90;;;;;;4249052;27;20499;-86
2022/11/14 07:56:15;;;;;;;43.38;18.30;;;6.30;99.90;;;;;;4248854;27;20543;-86
2022/11/14 07:58:16;;;;;;;51.53;19.77;;;6.30;99.90;;;;;;4230948;28;20500;-86
2022/11/14 08:00:17;;;;;;;50.80;19.30;;;6.20;99.90;;;;;;4230745;28;20050;-86
2022/11/14 08:02:18;;;;;;;51.17;20.05;;;6.40;99.90;;;;;;4249388;27;20039;-85
2022/11/14 08:04:19;;;;;;;49.05;20.85;;;6.40;99.90;;;;;;4229935;28;20058;-86
2022/11/14 08:06:19;;;;;;;43.10;18.17;;;6.40;99.90;;;;;;4248324;27;20483;-86
2022/11/14 08:08:21;;;;;;;49.00;20.00;;;6.40;99.90;;;;;;4213061;28;20052;-86
2022/11/14 08:10:22;;;;;;;48.75;19.00;;;6.40;99.90;;;;;;4213834;28;20473;-86
2022/11/14 08:12:22;;;;;;;40.67;17.33;;;6.40;99.90;;;;;;4214085;28;20086;-86
2022/11/14 08:14:24;;;;;;;44.65;18.58;;;6.50;99.90;;;;;;4249032;27;20043;-87
2022/11/14 08:16:24;;;;;;;41.75;17.83;;;6.30;99.90;;;;;;4214152;28;20496;-87
2022/11/14 08:18:25;;;;;;;40.72;17.30;;;6.40;99.90;;;;;;4248486;27;20127;-87
2022/11/14 08:20:26;;;;;;;47.90;18.77;;;6.20;99.90;;;;;;4213525;28;20555;-86
2022/11/14 08:22:27;;;;;;;47.67;18.48;;;6.30;99.90;;;;;;4249008;27;20047;-85
2022/11/14 08:24:28;;;;;;;46.00;17.50;;;6.70;99.90;;;;;;4231453;28;20044;-87
2022/11/14 08:26:29;;;;;;;50.30;19.08;;;6.30;99.90;;;;;;4213816;28;20090;-87
2022/11/14 08:28:30;;;;;;;44.67;17.08;;;6.40;99.90;;;;;;4235504;28;20063;-87
2022/11/14 08:30:30;;;;;;;42.72;17.60;;;6.60;99.90;;;;;;4232939;28;20067;-87
2022/11/14 08:32:32;;;;;;;43.80;18.35;;;6.50;99.90;;;;;;4230330;28;20075;-87
2022/11/14 08:34:33;;;;;;;42.38;18.13;;;6.50;99.90;;;;;;4249804;28;20066;-87
2022/11/14 08:36:34;;;;;;;40.58;17.15;;;6.40;99.90;;;;;;4214913;28;20109;-87
2022/11/14 08:38:36;;;;;;;43.72;17.98;;;6.50;99.90;;;;;;4249651;28;20043;-88
2022/11/14 08:40:36;;;;;;;44.38;18.27;;;6.50;99.90;;;;;;4231070;28;20047;-87
2022/11/14 08:42:37;;;;;;;48.38;17.85;;;7.10;99.90;;;;;;4231688;28;20535;-87
2022/11/14 08:44:39;;;;;;;45.15;17.20;;;6.60;99.90;;;;;;4231554;28;20427;-87
2022/11/14 08:46:41;;;;;;;42.88;18.15;;;6.70;99.90;;;;;;4247427;28;20425;-86
2022/11/14 08:48:42;;;;;;;42.65;18.33;;;6.70;99.90;;;;;;4215266;28;20131;-87
2022/11/14 08:50:43;;;;;;;44.20;17.73;;;6.60;99.90;;;;;;4249034;28;20050;-86
2022/11/14 08:52:50;;;;;;;42.65;18.05;;;6.70;99.90;;;;;;4250087;28;20047;-87
2022/11/14 08:54:51;;;;;;;39.97;17.10;;;6.80;99.90;;;;;;4214319;28;20093;-86
2022/11/14 08:56:52;;;;;;;41.53;17.17;;;7.50;99.90;;;;;;4230572;28;20060;-87
2022/11/14 08:58:52;;;;;;;40.90;18.00;;;6.80;99.90;;;;;;4243177;28;20035;-87
2022/11/14 09:01:04;;;;;;;46.92;18.00;;;6.80;99.90;;;;;;4230652;28;20071;-87
2022/11/14 09:03:10;;;;;;;41.55;17.77;;;6.80;99.90;;;;;;4231478;28;20047;-86
2022/11/14 09:05:13;;;;;;;40.40;18.30;;;6.90;99.90;;;;;;4229488;28;20031;-87
2022/11/14 09:07:14;;;;;;;40.28;17.17;;;6.80;99.90;;;;;;4231277;28;20051;-86
2022/11/14 09:09:15;;;;;;;44.10;17.52;;;6.80;99.90;;;;;;4213632;28;20044;-87
2022/11/14 09:11:16;;;;;;;40.35;18.00;;;6.90;99.90;;;;;;4225957;28;20164;-86
2022/11/14 09:13:17;;;;;;;42.03;17.60;;;6.70;99.90;;;;;;4201400;28;20052;-86
2022/11/14 09:15:18;;;;;;;38.50;17.08;;;6.80;99.90;;;;;;4248628;28;20051;-85
2022/11/14 09:17:18;;;;;;;39.42;18.45;;;6.80;99.90;;;;;;4248175;28;20035;-87
2022/11/14 09:19:20;;;;;;;40.25;17.70;;;6.80;99.90;;;;;;4251732;27;20391;-87
2022/11/14 09:21:22;;;;;;;40.67;17.25;;;7.00;99.90;;;;;;4216991;28;20044;-87
2022/11/14 09:23:24;;;;;;;42.30;18.40;;;7.00;99.90;;;;;;4234075;28;20047;-88
2022/11/14 09:25:28;;;;;;;40.85;17.80;;;6.80;99.90;;;;;;4232609;28;20554;-87
2022/11/14 09:27:29;;;;;;;42.75;16.52;;;7.10;99.90;;;;;;4252245;27;20043;-87
2022/11/14 09:29:30;;;;;;;39.97;18.02;;;7.00;99.90;;;;;;4250729;27;20054;-87
2022/11/14 09:31:32;;;;;;;41.88;18.15;;;7.00;99.90;;;;;;4233100;28;20431;-87
2022/11/14 09:33:33;;;;;;;37.55;16.20;;;7.00;99.90;;;;;;4251514;27;20054;-86
2022/11/14 09:35:36;;;;;;;45.75;17.85;;;7.30;99.90;;;;;;4216441;28;20044;-87
2022/11/14 09:37:38;;;;;;;41.70;18.02;;;7.30;99.90;;;;;;4252077;27;20044;-87
2022/11/14 09:39:39;;;;;;;38.75;16.92;;;7.60;99.90;;;;;;4217392;28;20079;-86
2022/11/14 09:41:56;;;;;;;41.70;18.50;;;7.50;99.90;;;;;;4232986;28;20051;-86
2022/11/14 09:44:39;;;;;;;39.60;17.33;;;7.70;99.90;;;;;;4251824;27;20039;-88
2022/11/14 09:46:44;;;;;;;40.70;17.42;;;7.50;99.90;;;;;;4224862;28;20051;-88
2022/11/14 09:48:47;;;;;;;40.75;17.00;;;7.40;99.90;;;;;;4199430;28;20110;-87
2022/11/14 09:51:14;;;;;;;47.97;17.55;;;7.40;99.90;;;;;;4234869;28;20092;-87
2022/11/14 09:53:24;;;;;;;40.70;17.67;;;7.50;99.90;;;;;;4247671;27;20051;-87
2022/11/14 09:55:30;;;;;;;42.60;18.83;;;7.30;99.90;;;;;;4252112;27;20055;-88
2022/11/14 09:57:30;;;;;;;41.40;17.38;;;7.50;99.90;;;;;;4251488;27;20039;-88
2022/11/14 09:59:32;;;;;;;39.22;17.77;;;7.90;99.90;;;;;;4233058;28;20561;-88
2022/11/14 10:01:39;;;;;;;39.72;17.00;;;7.40;99.90;;;;;;4226391;28;20055;-88
2022/11/14 10:04:11;;;;;;;40.72;18.00;;;7.40;99.90;;;;;;4251892;27;20055;-87
2022/11/14 10:06:27;;;;;;;44.85;19.88;;;7.40;99.90;;;;;;4231706;28;20043;-87
2022/11/14 10:08:55;;;;;;;37.03;16.63;;;7.30;99.90;;;;;;4216400;28;20468;-87
2022/11/14 10:11:35;;;;;;;38.85;17.38;;;7.50;99.90;;;;;;4223850;28;20435;-87
2022/11/14 10:14:17;;;;;;;38.85;18.40;;;7.40;99.90;;;;;;4202287;28;20059;-87
2022/11/14 10:16:30;;;;;;;37.28;16.38;;;7.50;99.90;;;;;;4194704;27;20061;-87
2022/11/14 10:18:49;;;;;;;37.40;16.38;;;7.50;99.90;;;;;;4233050;28;20122;-88
2022/11/14 10:20:55;;;;;;;;;;;7.50;99.90;;;;;;4233222;28;20114;-87
2022/11/14 10:23:44;;;;;;;39.70;16.42;;;7.50;99.90;;;;;;4232148;28;19934;-87
2022/11/14 10:25:53;;;;;;;37.97;17.00;;;7.50;99.90;;;;;;4189100;28;20052;-89
2022/11/14 10:28:19;;;;;;;37.85;17.52;;;7.60;99.90;;;;;;4249711;27;20507;-87
2022/11/14 10:30:20;;;;;;;36.90;16.70;;;7.60;99.90;;;;;;4215484;28;20505;-88
2022/11/14 10:32:37;;;;;;;43.28;18.45;;;7.70;99.90;;;;;;4231251;28;20047;-87
2022/11/14 10:34:49;;;;;;;36.72;16.75;;;7.70;99.90;;;;;;4233754;28;20048;-88